sensor_id;sensor_type;location;lat;lon;timestamp;P1;durP1;ratioP1;P2;durP2;ratioP2
75044;SDS011;63614;56.026;35.960;2023-05-10T00:00:52;8.60;;;3.47;;
75044;SDS011;63614;56.026;35.960;2023-05-10T00:03:18;8.43;;;3.60;;
75044;SDS011;63614;56.026;35.960;2023-05-10T00:05:44;4.95;;;3.33;;
75044;SDS011;63614;56.026;35.960;2023-05-10T00:08:09;6.63;;;3.20;;
75044;SDS011;63614;56.026;35.960;2023-05-10T00:10:35;6.45;;;3.50;;
75044;SDS011;63614;56.026;35.960;2023-05-10T00:13:02;9.30;;;3.25;;
75044;SDS011;63614;56.026;35.960;2023-05-10T00:15:28;7.35;;;3.28;;
75044;SDS011;63614;56.026;35.960;2023-05-10T00:17:56;10.93;;;3.72;;
75044;SDS011;63614;56.026;35.960;2023-05-10T00:20:22;6.55;;;3.55;;
75044;SDS011;63614;56.026;35.960;2023-05-10T00:22:50;6.00;;;3.60;;
75044;SDS011;63614;56.026;35.960;2023-05-10T00:25:16;6.90;;;3.47;;
75044;SDS011;63614;56.026;35.960;2023-05-10T00:27:49;6.65;;;3.17;;
75044;SDS011;63614;56.026;35.960;2023-05-10T00:30:18;11.48;;;3.63;;
75044;SDS011;63614;56.026;35.960;2023-05-10T00:32:44;6.90;;;3.33;;
75044;SDS011;63614;56.026;35.960;2023-05-10T00:35:10;10.27;;;3.55;;
75044;SDS011;63614;56.026;35.960;2023-05-10T00:37:36;9.63;;;3.70;;
75044;SDS011;63614;56.026;35.960;2023-05-10T00:40:01;6.05;;;3.40;;
75044;SDS011;63614;56.026;35.960;2023-05-10T00:42:29;7.70;;;3.20;;
75044;SDS011;63614;56.026;35.960;2023-05-10T00:44:55;22.17;;;3.83;;
75044;SDS011;63614;56.026;35.960;2023-05-10T00:47:23;13.75;;;3.28;;
75044;SDS011;63614;56.026;35.960;2023-05-10T00:49:49;19.13;;;3.28;;
75044;SDS011;63614;56.026;35.960;2023-05-10T00:52:15;8.35;;;3.33;;
75044;SDS011;63614;56.026;35.960;2023-05-10T00:54:41;7.80;;;4.15;;
75044;SDS011;63614;56.026;35.960;2023-05-10T00:57:10;9.60;;;3.45;;
75044;SDS011;63614;56.026;35.960;2023-05-10T00:59:36;7.47;;;3.20;;
75044;SDS011;63614;56.026;35.960;2023-05-10T01:02:02;8.82;;;3.40;;
75044;SDS011;63614;56.026;35.960;2023-05-10T01:04:28;7.55;;;3.35;;
75044;SDS011;63614;56.026;35.960;2023-05-10T01:09:22;13.90;;;2.78;;
75044;SDS011;63614;56.026;35.960;2023-05-10T01:11:48;13.07;;;3.63;;
75044;SDS011;63614;56.026;35.960;2023-05-10T01:14:15;12.45;;;3.90;;
75044;SDS011;63614;56.026;35.960;2023-05-10T01:16:44;13.35;;;3.50;;
75044;SDS011;63614;56.026;35.960;2023-05-10T01:19:22;10.50;;;3.38;;
75044;SDS011;63614;56.026;35.960;2023-05-10T01:25:19;14.02;;;3.67;;
75044;SDS011;63614;56.026;35.960;2023-05-10T01:42:15;6.78;;;3.67;;
75044;SDS011;63614;56.026;35.960;2023-05-10T01:47:35;9.00;;;4.28;;
75044;SDS011;63614;56.026;35.960;2023-05-10T01:50:04;8.27;;;4.22;;
75044;SDS011;63614;56.026;35.960;2023-05-10T01:52:41;16.38;;;4.57;;
75044;SDS011;63614;56.026;35.960;2023-05-10T01:55:10;74.68;;;6.72;;
75044;SDS011;63614;56.026;35.960;2023-05-10T01:57:40;10.60;;;3.70;;
75044;SDS011;63614;56.026;35.960;2023-05-10T02:00:09;17.88;;;4.60;;
75044;SDS011;63614;56.026;35.960;2023-05-10T02:02:50;7.43;;;3.75;;
75044;SDS011;63614;56.026;35.960;2023-05-10T02:05:18;13.93;;;4.20;;
75044;SDS011;63614;56.026;35.960;2023-05-10T02:07:46;12.13;;;4.38;;
75044;SDS011;63614;56.026;35.960;2023-05-10T02:10:13;19.23;;;4.13;;
75044;SDS011;63614;56.026;35.960;2023-05-10T02:12:41;17.17;;;3.90;;
75044;SDS011;63614;56.026;35.960;2023-05-10T02:15:11;10.07;;;3.70;;
75044;SDS011;63614;56.026;35.960;2023-05-10T02:17:41;15.02;;;4.22;;
75044;SDS011;63614;56.026;35.960;2023-05-10T02:20:08;12.73;;;3.92;;
75044;SDS011;63614;56.026;35.960;2023-05-10T02:22:39;8.63;;;3.42;;
75044;SDS011;63614;56.026;35.960;2023-05-10T02:25:06;7.82;;;3.72;;
75044;SDS011;63614;56.026;35.960;2023-05-10T02:27:34;12.60;;;4.20;;
75044;SDS011;63614;56.026;35.960;2023-05-10T02:30:01;9.65;;;4.25;;
75044;SDS011;63614;56.026;35.960;2023-05-10T02:32:30;18.65;;;4.07;;
75044;SDS011;63614;56.026;35.960;2023-05-10T02:34:56;15.10;;;4.13;;
75044;SDS011;63614;56.026;35.960;2023-05-10T02:37:23;11.10;;;3.70;;
75044;SDS011;63614;56.026;35.960;2023-05-10T02:39:50;10.77;;;4.27;;
75044;SDS011;63614;56.026;35.960;2023-05-10T02:42:19;9.18;;;3.60;;
75044;SDS011;63614;56.026;35.960;2023-05-10T02:44:52;10.15;;;4.20;;
75044;SDS011;63614;56.026;35.960;2023-05-10T02:47:21;15.07;;;3.95;;
75044;SDS011;63614;56.026;35.960;2023-05-10T02:49:48;7.88;;;3.15;;
75044;SDS011;63614;56.026;35.960;2023-05-10T02:52:19;11.88;;;3.28;;
75044;SDS011;63614;56.026;35.960;2023-05-10T02:54:49;6.03;;;3.53;;
75044;SDS011;63614;56.026;35.960;2023-05-10T02:57:17;9.65;;;3.20;;
75044;SDS011;63614;56.026;35.960;2023-05-10T02:59:54;12.57;;;3.53;;
75044;SDS011;63614;56.026;35.960;2023-05-10T03:02:20;8.07;;;3.50;;
75044;SDS011;63614;56.026;35.960;2023-05-10T03:04:46;10.57;;;3.85;;
75044;SDS011;63614;56.026;35.960;2023-05-10T03:07:14;12.35;;;4.85;;
75044;SDS011;63614;56.026;35.960;2023-05-10T03:09:45;10.38;;;4.55;;
75044;SDS011;63614;56.026;35.960;2023-05-10T03:12:18;11.57;;;5.60;;
75044;SDS011;63614;56.026;35.960;2023-05-10T03:17:47;12.82;;;5.32;;
75044;SDS011;63614;56.026;35.960;2023-05-10T03:20:26;14.80;;;5.82;;
75044;SDS011;63614;56.026;35.960;2023-05-10T03:23:00;22.58;;;6.88;;
75044;SDS011;63614;56.026;35.960;2023-05-10T03:25:43;21.30;;;7.97;;
75044;SDS011;63614;56.026;35.960;2023-05-10T03:28:12;17.58;;;7.43;;
75044;SDS011;63614;56.026;35.960;2023-05-10T03:30:42;16.95;;;7.38;;
75044;SDS011;63614;56.026;35.960;2023-05-10T03:33:10;13.73;;;6.82;;
75044;SDS011;63614;56.026;35.960;2023-05-10T03:35:41;22.75;;;8.07;;
75044;SDS011;63614;56.026;35.960;2023-05-10T03:38:07;15.52;;;7.82;;
75044;SDS011;63614;56.026;35.960;2023-05-10T03:40:33;19.17;;;7.90;;
75044;SDS011;63614;56.026;35.960;2023-05-10T03:42:59;23.40;;;8.18;;
75044;SDS011;63614;56.026;35.960;2023-05-10T03:45:25;15.30;;;6.55;;
75044;SDS011;63614;56.026;35.960;2023-05-10T03:47:52;16.92;;;5.80;;
75044;SDS011;63614;56.026;35.960;2023-05-10T03:50:20;12.60;;;5.97;;
75044;SDS011;63614;56.026;35.960;2023-05-10T03:52:47;12.57;;;6.22;;
75044;SDS011;63614;56.026;35.960;2023-05-10T03:55:13;14.30;;;5.32;;
75044;SDS011;63614;56.026;35.960;2023-05-10T03:57:39;15.63;;;5.65;;
75044;SDS011;63614;56.026;35.960;2023-05-10T04:00:06;11.85;;;5.85;;
75044;SDS011;63614;56.026;35.960;2023-05-10T04:02:49;15.73;;;5.93;;
75044;SDS011;63614;56.026;35.960;2023-05-10T04:05:18;16.30;;;5.82;;
75044;SDS011;63614;56.026;35.960;2023-05-10T04:07:43;17.67;;;5.95;;
75044;SDS011;63614;56.026;35.960;2023-05-10T04:10:10;17.23;;;7.30;;
75044;SDS011;63614;56.026;35.960;2023-05-10T04:12:36;17.17;;;7.67;;
75044;SDS011;63614;56.026;35.960;2023-05-10T04:15:02;12.02;;;7.53;;
75044;SDS011;63614;56.026;35.960;2023-05-10T04:17:29;19.40;;;6.82;;
75044;SDS011;63614;56.026;35.960;2023-05-10T04:19:56;19.48;;;7.05;;
75044;SDS011;63614;56.026;35.960;2023-05-10T04:22:22;23.88;;;7.05;;
75044;SDS011;63614;56.026;35.960;2023-05-10T04:24:48;13.05;;;6.80;;
75044;SDS011;63614;56.026;35.960;2023-05-10T04:27:13;15.80;;;7.53;;
75044;SDS011;63614;56.026;35.960;2023-05-10T04:29:39;24.08;;;8.35;;
75044;SDS011;63614;56.026;35.960;2023-05-10T04:32:08;23.60;;;7.50;;
75044;SDS011;63614;56.026;35.960;2023-05-10T04:34:36;13.10;;;7.55;;
75044;SDS011;63614;56.026;35.960;2023-05-10T04:37:02;19.23;;;7.43;;
75044;SDS011;63614;56.026;35.960;2023-05-10T04:39:28;15.02;;;7.38;;
75044;SDS011;63614;56.026;35.960;2023-05-10T04:41:54;23.58;;;7.72;;
75044;SDS011;63614;56.026;35.960;2023-05-10T04:44:20;27.92;;;8.45;;
75044;SDS011;63614;56.026;35.960;2023-05-10T04:46:46;20.90;;;7.15;;
75044;SDS011;63614;56.026;35.960;2023-05-10T04:49:11;38.50;;;9.13;;
75044;SDS011;63614;56.026;35.960;2023-05-10T04:51:37;26.63;;;7.55;;
75044;SDS011;63614;56.026;35.960;2023-05-10T04:54:03;17.83;;;7.55;;
75044;SDS011;63614;56.026;35.960;2023-05-10T04:56:29;23.58;;;7.38;;
75044;SDS011;63614;56.026;35.960;2023-05-10T04:58:54;17.45;;;7.47;;
75044;SDS011;63614;56.026;35.960;2023-05-10T05:01:20;20.45;;;7.15;;
75044;SDS011;63614;56.026;35.960;2023-05-10T05:03:46;30.13;;;7.28;;
75044;SDS011;63614;56.026;35.960;2023-05-10T05:06:12;20.52;;;7.53;;
75044;SDS011;63614;56.026;35.960;2023-05-10T05:08:37;14.85;;;7.10;;
75044;SDS011;63614;56.026;35.960;2023-05-10T05:11:03;18.30;;;6.93;;
75044;SDS011;63614;56.026;35.960;2023-05-10T05:13:29;14.60;;;6.85;;
75044;SDS011;63614;56.026;35.960;2023-05-10T05:15:55;15.68;;;6.95;;
75044;SDS011;63614;56.026;35.960;2023-05-10T05:18:21;16.83;;;6.40;;
75044;SDS011;63614;56.026;35.960;2023-05-10T05:20:46;16.15;;;6.75;;
75044;SDS011;63614;56.026;35.960;2023-05-10T05:23:12;25.85;;;6.93;;
75044;SDS011;63614;56.026;35.960;2023-05-10T05:25:38;12.73;;;6.25;;
75044;SDS011;63614;56.026;35.960;2023-05-10T05:28:04;13.98;;;6.43;;
75044;SDS011;63614;56.026;35.960;2023-05-10T05:30:29;23.57;;;6.57;;
75044;SDS011;63614;56.026;35.960;2023-05-10T05:32:55;16.13;;;5.90;;
75044;SDS011;63614;56.026;35.960;2023-05-10T05:35:24;29.10;;;6.18;;
75044;SDS011;63614;56.026;35.960;2023-05-10T05:37:50;18.50;;;5.67;;
75044;SDS011;63614;56.026;35.960;2023-05-10T05:40:16;26.20;;;6.20;;
75044;SDS011;63614;56.026;35.960;2023-05-10T05:42:41;23.93;;;5.73;;
75044;SDS011;63614;56.026;35.960;2023-05-10T05:45:07;10.52;;;5.15;;
75044;SDS011;63614;56.026;35.960;2023-05-10T05:47:34;7.60;;;5.00;;
75044;SDS011;63614;56.026;35.960;2023-05-10T05:50:02;9.35;;;5.05;;
75044;SDS011;63614;56.026;35.960;2023-05-10T05:52:30;21.02;;;5.95;;
75044;SDS011;63614;56.026;35.960;2023-05-10T05:54:55;9.50;;;5.22;;
75044;SDS011;63614;56.026;35.960;2023-05-10T05:57:21;10.27;;;5.32;;
75044;SDS011;63614;56.026;35.960;2023-05-10T05:59:48;11.52;;;5.15;;
75044;SDS011;63614;56.026;35.960;2023-05-10T06:02:13;11.20;;;4.90;;
75044;SDS011;63614;56.026;35.960;2023-05-10T06:04:39;11.82;;;4.32;;
75044;SDS011;63614;56.026;35.960;2023-05-10T06:07:05;12.57;;;4.68;;
75044;SDS011;63614;56.026;35.960;2023-05-10T06:09:31;8.07;;;3.67;;
75044;SDS011;63614;56.026;35.960;2023-05-10T06:11:57;19.30;;;4.20;;
75044;SDS011;63614;56.026;35.960;2023-05-10T06:14:22;13.15;;;3.50;;
75044;SDS011;63614;56.026;35.960;2023-05-10T06:16:48;12.10;;;4.18;;
75044;SDS011;63614;56.026;35.960;2023-05-10T06:19:14;10.40;;;3.72;;
75044;SDS011;63614;56.026;35.960;2023-05-10T06:21:40;12.68;;;4.10;;
75044;SDS011;63614;56.026;35.960;2023-05-10T06:24:06;9.38;;;3.97;;
75044;SDS011;63614;56.026;35.960;2023-05-10T06:26:32;12.00;;;3.97;;
75044;SDS011;63614;56.026;35.960;2023-05-10T06:28:58;10.38;;;3.97;;
75044;SDS011;63614;56.026;35.960;2023-05-10T06:31:24;11.75;;;4.53;;
75044;SDS011;63614;56.026;35.960;2023-05-10T06:33:55;9.05;;;4.20;;
75044;SDS011;63614;56.026;35.960;2023-05-10T06:36:21;12.77;;;4.45;;
75044;SDS011;63614;56.026;35.960;2023-05-10T06:38:47;9.07;;;3.80;;
75044;SDS011;63614;56.026;35.960;2023-05-10T06:41:13;9.17;;;4.47;;
75044;SDS011;63614;56.026;35.960;2023-05-10T06:43:39;11.50;;;3.80;;
75044;SDS011;63614;56.026;35.960;2023-05-10T06:46:07;9.77;;;4.35;;
75044;SDS011;63614;56.026;35.960;2023-05-10T06:48:32;12.88;;;4.30;;
75044;SDS011;63614;56.026;35.960;2023-05-10T06:50:59;9.40;;;4.25;;
75044;SDS011;63614;56.026;35.960;2023-05-10T06:53:25;16.40;;;3.88;;
75044;SDS011;63614;56.026;35.960;2023-05-10T06:55:51;10.27;;;4.25;;
75044;SDS011;63614;56.026;35.960;2023-05-10T06:58:17;10.93;;;3.55;;
75044;SDS011;63614;56.026;35.960;2023-05-10T07:00:43;13.52;;;4.60;;
75044;SDS011;63614;56.026;35.960;2023-05-10T07:03:11;40.70;;;4.82;;
75044;SDS011;63614;56.026;35.960;2023-05-10T07:05:37;14.30;;;3.70;;
75044;SDS011;63614;56.026;35.960;2023-05-10T07:08:03;13.90;;;4.53;;
75044;SDS011;63614;56.026;35.960;2023-05-10T07:10:29;9.48;;;4.00;;
75044;SDS011;63614;56.026;35.960;2023-05-10T07:12:55;5.75;;;3.60;;
75044;SDS011;63614;56.026;35.960;2023-05-10T07:15:21;25.55;;;3.88;;
75044;SDS011;63614;56.026;35.960;2023-05-10T07:17:47;10.32;;;3.70;;
75044;SDS011;63614;56.026;35.960;2023-05-10T07:20:22;8.40;;;3.17;;
75044;SDS011;63614;56.026;35.960;2023-05-10T07:22:48;14.98;;;4.00;;
75044;SDS011;63614;56.026;35.960;2023-05-10T07:25:16;14.80;;;3.70;;
75044;SDS011;63614;56.026;35.960;2023-05-10T07:27:42;14.82;;;6.03;;
75044;SDS011;63614;56.026;35.960;2023-05-10T07:30:08;13.95;;;3.85;;
75044;SDS011;63614;56.026;35.960;2023-05-10T07:32:36;18.85;;;3.60;;
75044;SDS011;63614;56.026;35.960;2023-05-10T07:35:04;27.48;;;3.83;;
75044;SDS011;63614;56.026;35.960;2023-05-10T07:37:30;9.27;;;2.92;;
75044;SDS011;63614;56.026;35.960;2023-05-10T07:39:56;11.23;;;3.47;;
75044;SDS011;63614;56.026;35.960;2023-05-10T07:42:22;16.50;;;3.72;;
75044;SDS011;63614;56.026;35.960;2023-05-10T07:44:48;5.50;;;2.80;;
75044;SDS011;63614;56.026;35.960;2023-05-10T07:47:13;10.30;;;3.30;;
75044;SDS011;63614;56.026;35.960;2023-05-10T07:49:39;9.23;;;3.30;;
75044;SDS011;63614;56.026;35.960;2023-05-10T07:52:05;8.18;;;2.67;;
75044;SDS011;63614;56.026;35.960;2023-05-10T07:54:31;5.22;;;2.83;;
75044;SDS011;63614;56.026;35.960;2023-05-10T07:56:57;6.45;;;2.55;;
75044;SDS011;63614;56.026;35.960;2023-05-10T07:59:27;4.85;;;2.40;;
75044;SDS011;63614;56.026;35.960;2023-05-10T08:01:55;9.40;;;2.90;;
75044;SDS011;63614;56.026;35.960;2023-05-10T08:04:21;12.23;;;3.17;;
75044;SDS011;63614;56.026;35.960;2023-05-10T08:06:47;16.40;;;2.85;;
75044;SDS011;63614;56.026;35.960;2023-05-10T08:09:13;13.15;;;3.35;;
75044;SDS011;63614;56.026;35.960;2023-05-10T08:11:39;10.02;;;2.80;;
75044;SDS011;63614;56.026;35.960;2023-05-10T08:14:05;4.57;;;2.40;;
75044;SDS011;63614;56.026;35.960;2023-05-10T08:16:31;3.90;;;2.00;;
75044;SDS011;63614;56.026;35.960;2023-05-10T08:18:57;9.50;;;2.67;;
75044;SDS011;63614;56.026;35.960;2023-05-10T08:21:23;5.95;;;1.90;;
75044;SDS011;63614;56.026;35.960;2023-05-10T08:23:49;8.50;;;1.83;;
75044;SDS011;63614;56.026;35.960;2023-05-10T08:26:15;8.57;;;2.00;;
75044;SDS011;63614;56.026;35.960;2023-05-10T08:28:41;4.75;;;2.17;;
75044;SDS011;63614;56.026;35.960;2023-05-10T08:31:06;6.22;;;2.10;;
75044;SDS011;63614;56.026;35.960;2023-05-10T08:33:34;15.32;;;2.60;;
75044;SDS011;63614;56.026;35.960;2023-05-10T08:36:00;5.97;;;2.10;;
75044;SDS011;63614;56.026;35.960;2023-05-10T08:38:26;6.00;;;2.33;;
75044;SDS011;63614;56.026;35.960;2023-05-10T08:40:52;6.65;;;2.10;;
75044;SDS011;63614;56.026;35.960;2023-05-10T08:43:21;4.13;;;2.17;;
75044;SDS011;63614;56.026;35.960;2023-05-10T08:45:51;9.63;;;2.05;;
75044;SDS011;63614;56.026;35.960;2023-05-10T08:48:22;3.40;;;1.90;;
75044;SDS011;63614;56.026;35.960;2023-05-10T08:50:51;19.98;;;3.05;;
75044;SDS011;63614;56.026;35.960;2023-05-10T08:53:19;5.53;;;2.70;;
75044;SDS011;63614;56.026;35.960;2023-05-10T08:55:46;4.78;;;2.00;;
75044;SDS011;63614;56.026;35.960;2023-05-10T08:58:12;10.40;;;2.80;;
75044;SDS011;63614;56.026;35.960;2023-05-10T09:00:38;26.67;;;4.45;;
75044;SDS011;63614;56.026;35.960;2023-05-10T09:03:08;7.97;;;2.08;;
75044;SDS011;63614;56.026;35.960;2023-05-10T09:05:34;4.60;;;1.70;;
75044;SDS011;63614;56.026;35.960;2023-05-10T09:08:01;5.80;;;1.80;;
75044;SDS011;63614;56.026;35.960;2023-05-10T09:10:27;10.82;;;1.67;;
75044;SDS011;63614;56.026;35.960;2023-05-10T09:12:57;5.47;;;1.77;;
75044;SDS011;63614;56.026;35.960;2023-05-10T09:15:24;5.75;;;1.75;;
75044;SDS011;63614;56.026;35.960;2023-05-10T09:17:50;3.75;;;1.70;;
75044;SDS011;63614;56.026;35.960;2023-05-10T09:20:16;4.10;;;1.70;;
75044;SDS011;63614;56.026;35.960;2023-05-10T09:25:12;7.05;;;3.15;;
75044;SDS011;63614;56.026;35.960;2023-05-10T09:27:40;3.72;;;1.90;;
75044;SDS011;63614;56.026;35.960;2023-05-10T09:30:09;17.88;;;2.33;;
75044;SDS011;63614;56.026;35.960;2023-05-10T09:32:45;8.18;;;2.20;;
75044;SDS011;63614;56.026;35.960;2023-05-10T09:35:13;35.67;;;2.83;;
75044;SDS011;63614;56.026;35.960;2023-05-10T09:37:42;11.57;;;2.13;;
75044;SDS011;63614;56.026;35.960;2023-05-10T09:40:11;5.65;;;1.77;;
75044;SDS011;63614;56.026;35.960;2023-05-10T09:42:42;6.30;;;2.10;;
75044;SDS011;63614;56.026;35.960;2023-05-10T09:45:15;11.10;;;1.85;;
75044;SDS011;63614;56.026;35.960;2023-05-10T09:47:41;2.83;;;1.70;;
75044;SDS011;63614;56.026;35.960;2023-05-10T09:50:07;8.02;;;2.20;;
75044;SDS011;63614;56.026;35.960;2023-05-10T09:52:45;7.75;;;2.15;;
75044;SDS011;63614;56.026;35.960;2023-05-10T09:55:17;11.07;;;1.67;;
75044;SDS011;63614;56.026;35.960;2023-05-10T09:57:45;10.27;;;2.10;;
75044;SDS011;63614;56.026;35.960;2023-05-10T10:00:17;26.50;;;3.08;;
75044;SDS011;63614;56.026;35.960;2023-05-10T10:02:48;3.72;;;1.83;;
75044;SDS011;63614;56.026;35.960;2023-05-10T10:05:21;3.80;;;1.73;;
75044;SDS011;63614;56.026;35.960;2023-05-10T10:07:53;15.38;;;2.10;;
75044;SDS011;63614;56.026;35.960;2023-05-10T10:10:18;7.32;;;1.80;;
75044;SDS011;63614;56.026;35.960;2023-05-10T10:12:45;4.97;;;1.80;;
75044;SDS011;63614;56.026;35.960;2023-05-10T10:15:10;4.45;;;1.80;;
75044;SDS011;63614;56.026;35.960;2023-05-10T10:17:40;6.68;;;1.80;;
75044;SDS011;63614;56.026;35.960;2023-05-10T10:20:06;5.05;;;1.92;;
75044;SDS011;63614;56.026;35.960;2023-05-10T10:22:33;5.07;;;2.10;;
75044;SDS011;63614;56.026;35.960;2023-05-10T10:24:59;6.50;;;2.00;;
75044;SDS011;63614;56.026;35.960;2023-05-10T10:28:02;5.03;;;2.20;;
75044;SDS011;63614;56.026;35.960;2023-05-10T10:35:52;10.20;;;2.03;;
75044;SDS011;63614;56.026;35.960;2023-05-10T10:38:19;4.88;;;2.00;;
75044;SDS011;63614;56.026;35.960;2023-05-10T10:40:46;16.30;;;2.28;;
75044;SDS011;63614;56.026;35.960;2023-05-10T10:43:25;7.07;;;2.05;;
75044;SDS011;63614;56.026;35.960;2023-05-10T10:48:50;34.40;;;3.28;;
75044;SDS011;63614;56.026;35.960;2023-05-10T10:51:37;10.38;;;2.50;;
75044;SDS011;63614;56.026;35.960;2023-05-10T10:54:10;6.88;;;2.00;;
75044;SDS011;63614;56.026;35.960;2023-05-10T10:56:36;28.02;;;2.58;;
75044;SDS011;63614;56.026;35.960;2023-05-10T10:59:02;11.45;;;2.28;;
75044;SDS011;63614;56.026;35.960;2023-05-10T11:01:34;6.78;;;1.90;;
75044;SDS011;63614;56.026;35.960;2023-05-10T11:06:30;14.80;;;2.28;;
75044;SDS011;63614;56.026;35.960;2023-05-10T11:08:57;13.20;;;2.15;;
75044;SDS011;63614;56.026;35.960;2023-05-10T11:11:23;3.50;;;1.75;;
75044;SDS011;63614;56.026;35.960;2023-05-10T11:13:52;3.38;;;2.00;;
75044;SDS011;63614;56.026;35.960;2023-05-10T11:16:22;7.50;;;2.30;;
75044;SDS011;63614;56.026;35.960;2023-05-10T11:21:18;8.10;;;2.28;;
75044;SDS011;63614;56.026;35.960;2023-05-10T11:23:48;12.32;;;3.35;;
75044;SDS011;63614;56.026;35.960;2023-05-10T11:26:16;5.90;;;1.83;;
75044;SDS011;63614;56.026;35.960;2023-05-10T11:28:43;6.43;;;2.10;;
75044;SDS011;63614;56.026;35.960;2023-05-10T11:31:16;7.93;;;1.90;;
75044;SDS011;63614;56.026;35.960;2023-05-10T11:33:46;13.00;;;2.40;;
75044;SDS011;63614;56.026;35.960;2023-05-10T11:36:13;32.00;;;2.28;;
75044;SDS011;63614;56.026;35.960;2023-05-10T11:38:40;5.07;;;2.20;;
75044;SDS011;63614;56.026;35.960;2023-05-10T11:41:10;9.88;;;2.35;;
75044;SDS011;63614;56.026;35.960;2023-05-10T11:43:40;6.40;;;1.85;;
75044;SDS011;63614;56.026;35.960;2023-05-10T11:46:07;4.93;;;1.70;;
75044;SDS011;63614;56.026;35.960;2023-05-10T11:48:36;10.02;;;2.00;;
75044;SDS011;63614;56.026;35.960;2023-05-10T11:51:04;5.30;;;1.83;;
75044;SDS011;63614;56.026;35.960;2023-05-10T11:53:31;4.90;;;1.95;;
75044;SDS011;63614;56.026;35.960;2023-05-10T11:56:08;6.93;;;1.60;;
75044;SDS011;63614;56.026;35.960;2023-05-10T11:58:35;13.00;;;1.90;;
75044;SDS011;63614;56.026;35.960;2023-05-10T12:03:31;7.10;;;2.03;;
75044;SDS011;63614;56.026;35.960;2023-05-10T12:05:57;6.18;;;1.88;;
75044;SDS011;63614;56.026;35.960;2023-05-10T12:08:24;7.43;;;1.87;;
75044;SDS011;63614;56.026;35.960;2023-05-10T12:10:51;11.15;;;1.85;;
75044;SDS011;63614;56.026;35.960;2023-05-10T12:15:45;8.13;;;1.90;;
75044;SDS011;63614;56.026;35.960;2023-05-10T12:18:12;8.38;;;1.95;;
75044;SDS011;63614;56.026;35.960;2023-05-10T12:20:39;7.72;;;2.05;;
75044;SDS011;63614;56.026;35.960;2023-05-10T12:23:07;8.45;;;2.08;;
75044;SDS011;63614;56.026;35.960;2023-05-10T12:25:35;4.13;;;1.85;;
75044;SDS011;63614;56.026;35.960;2023-05-10T12:28:05;4.80;;;1.80;;
75044;SDS011;63614;56.026;35.960;2023-05-10T12:30:32;6.60;;;2.10;;
75044;SDS011;63614;56.026;35.960;2023-05-10T12:33:07;9.30;;;2.00;;
75044;SDS011;63614;56.026;35.960;2023-05-10T12:35:45;6.10;;;1.80;;
75044;SDS011;63614;56.026;35.960;2023-05-10T12:38:35;7.85;;;2.13;;
75044;SDS011;63614;56.026;35.960;2023-05-10T12:41:09;5.25;;;2.13;;
75044;SDS011;63614;56.026;35.960;2023-05-10T12:43:36;5.60;;;2.00;;
75044;SDS011;63614;56.026;35.960;2023-05-10T12:48:40;10.23;;;1.90;;
75044;SDS011;63614;56.026;35.960;2023-05-10T12:51:06;16.70;;;2.92;;
75044;SDS011;63614;56.026;35.960;2023-05-10T12:53:38;8.18;;;1.92;;
75044;SDS011;63614;56.026;35.960;2023-05-10T12:56:05;3.45;;;1.63;;
75044;SDS011;63614;56.026;35.960;2023-05-10T12:58:31;19.83;;;2.23;;
75044;SDS011;63614;56.026;35.960;2023-05-10T13:00:57;4.15;;;1.80;;
75044;SDS011;63614;56.026;35.960;2023-05-10T13:03:24;5.53;;;2.20;;
75044;SDS011;63614;56.026;35.960;2023-05-10T13:05:50;7.78;;;2.28;;
75044;SDS011;63614;56.026;35.960;2023-05-10T13:08:16;4.40;;;2.15;;
75044;SDS011;63614;56.026;35.960;2023-05-10T13:10:42;6.18;;;2.30;;
75044;SDS011;63614;56.026;35.960;2023-05-10T13:13:08;4.50;;;1.80;;
75044;SDS011;63614;56.026;35.960;2023-05-10T13:15:34;6.05;;;2.15;;
75044;SDS011;63614;56.026;35.960;2023-05-10T13:18:00;4.20;;;2.38;;
75044;SDS011;63614;56.026;35.960;2023-05-10T13:20:26;4.65;;;1.73;;
75044;SDS011;63614;56.026;35.960;2023-05-10T13:22:52;15.98;;;2.13;;
75044;SDS011;63614;56.026;35.960;2023-05-10T13:25:18;5.25;;;1.80;;
75044;SDS011;63614;56.026;35.960;2023-05-10T13:27:45;7.78;;;2.33;;
75044;SDS011;63614;56.026;35.960;2023-05-10T13:30:11;6.03;;;2.17;;
75044;SDS011;63614;56.026;35.960;2023-05-10T13:32:37;7.03;;;2.15;;
75044;SDS011;63614;56.026;35.960;2023-05-10T13:35:03;3.90;;;1.80;;
75044;SDS011;63614;56.026;35.960;2023-05-10T13:37:31;8.20;;;2.10;;
75044;SDS011;63614;56.026;35.960;2023-05-10T13:40:01;9.80;;;2.00;;
75044;SDS011;63614;56.026;35.960;2023-05-10T13:42:30;5.15;;;1.90;;
75044;SDS011;63614;56.026;35.960;2023-05-10T13:44:59;6.45;;;2.10;;
75044;SDS011;63614;56.026;35.960;2023-05-10T13:47:32;5.40;;;1.95;;
75044;SDS011;63614;56.026;35.960;2023-05-10T13:49:58;5.75;;;2.17;;
75044;SDS011;63614;56.026;35.960;2023-05-10T13:52:24;30.77;;;2.67;;
75044;SDS011;63614;56.026;35.960;2023-05-10T13:54:49;12.45;;;2.45;;
75044;SDS011;63614;56.026;35.960;2023-05-10T13:57:18;9.65;;;1.92;;
75044;SDS011;63614;56.026;35.960;2023-05-10T13:59:43;13.60;;;2.17;;
75044;SDS011;63614;56.026;35.960;2023-05-10T14:02:09;7.85;;;2.10;;
75044;SDS011;63614;56.026;35.960;2023-05-10T14:04:38;21.95;;;2.15;;
75044;SDS011;63614;56.026;35.960;2023-05-10T14:07:04;7.78;;;1.85;;
75044;SDS011;63614;56.026;35.960;2023-05-10T14:09:30;7.72;;;2.13;;
75044;SDS011;63614;56.026;35.960;2023-05-10T14:11:56;15.00;;;2.55;;
75044;SDS011;63614;56.026;35.960;2023-05-10T14:14:22;7.90;;;2.00;;
75044;SDS011;63614;56.026;35.960;2023-05-10T14:16:48;5.60;;;1.88;;
75044;SDS011;63614;56.026;35.960;2023-05-10T14:19:14;4.60;;;2.40;;
75044;SDS011;63614;56.026;35.960;2023-05-10T14:21:40;7.60;;;2.42;;
75044;SDS011;63614;56.026;35.960;2023-05-10T14:24:06;3.92;;;2.00;;
75044;SDS011;63614;56.026;35.960;2023-05-10T14:26:32;16.30;;;2.87;;
75044;SDS011;63614;56.026;35.960;2023-05-10T14:28:59;7.70;;;1.98;;
75044;SDS011;63614;56.026;35.960;2023-05-10T14:31:25;10.10;;;2.05;;
75044;SDS011;63614;56.026;35.960;2023-05-10T14:33:52;12.20;;;2.33;;
75044;SDS011;63614;56.026;35.960;2023-05-10T14:36:18;7.13;;;2.15;;
75044;SDS011;63614;56.026;35.960;2023-05-10T14:38:44;9.32;;;2.55;;
75044;SDS011;63614;56.026;35.960;2023-05-10T14:41:10;11.30;;;2.70;;
75044;SDS011;63614;56.026;35.960;2023-05-10T14:43:39;8.60;;;2.47;;
75044;SDS011;63614;56.026;35.960;2023-05-10T14:46:06;12.05;;;2.85;;
75044;SDS011;63614;56.026;35.960;2023-05-10T14:48:32;7.43;;;2.38;;
75044;SDS011;63614;56.026;35.960;2023-05-10T14:50:58;4.38;;;1.90;;
75044;SDS011;63614;56.026;35.960;2023-05-10T14:53:23;13.00;;;2.60;;
75044;SDS011;63614;56.026;35.960;2023-05-10T14:55:49;13.63;;;2.65;;
75044;SDS011;63614;56.026;35.960;2023-05-10T14:58:15;20.63;;;2.80;;
75044;SDS011;63614;56.026;35.960;2023-05-10T15:00:41;12.63;;;2.92;;
75044;SDS011;63614;56.026;35.960;2023-05-10T15:03:08;5.53;;;2.03;;
75044;SDS011;63614;56.026;35.960;2023-05-10T15:05:34;15.23;;;2.17;;
75044;SDS011;63614;56.026;35.960;2023-05-10T15:08:03;7.72;;;2.30;;
75044;SDS011;63614;56.026;35.960;2023-05-10T15:10:29;7.13;;;2.40;;
75044;SDS011;63614;56.026;35.960;2023-05-10T15:12:55;25.88;;;3.97;;
75044;SDS011;63614;56.026;35.960;2023-05-10T15:15:23;14.60;;;3.20;;
75044;SDS011;63614;56.026;35.960;2023-05-10T15:17:49;8.98;;;3.00;;
75044;SDS011;63614;56.026;35.960;2023-05-10T15:20:15;18.00;;;3.03;;